Impacts METAR Board
IDs:

KAQO - Llano Muni, TX, US

Updated at: 0400 UTC 18 Jan 2022
Potential Impact None Slight Moderate High
Time 17/16Z 17/17Z 17/18Z 17/19Z 17/20Z 17/21Z 17/22Z 17/23Z 18/00Z 18/01Z 18/02Z 18/03Z 18/04Z
Temp46 54 61 64 66 70 70 68 61 55 52 52 39
Dewpt21 19 21 19 18 19 19 19 23 25 21 19 25
Altim30.18 30.18 30.16 30.11 30.07 30.04 30.03 30.02 30.01 30.02 30.03 30.03 30.03
VIS10 10 10 10 10 10 10 10 10 10 10 10 10
CIG-- -- -- -- -- -- -- -- -- -- -- -- --
CoverCLRCLRCLRCLRCLRCLRCLRCLRCLRCLRSCTSCTFEW
FltCatVFRVFRVFRVFRVFRVFRVFRVFRVFRVFRVFRVFRVFR
WX--------------------------
WDir00100012001201201201201701600
WSpd0 0 6 4 7 6 10 6 7 6 5 4 0
WGst-- -- -- -- -- 12 -- 12 -- -- -- -- --
Raw hourly METARs
KAQO 171555Z AUTO 00000KT 10SM CLR 08/M06 A3018 RMK AO2
KAQO 171655Z AUTO 00000KT 10SM CLR 12/M07 A3018 RMK AO2
KAQO 171755Z AUTO 10006KT 10SM CLR 16/M06 A3016 RMK AO2
KAQO 171855Z AUTO VRB04KT 10SM CLR 18/M07 A3011 RMK AO2
KAQO 171955Z AUTO 12007KT 10SM CLR 19/M08 A3007 RMK AO2
KAQO 172055Z AUTO VRB06G12KT 10SM CLR 21/M07 A3004 RMK AO2
KAQO 172155Z AUTO 12010KT 10SM CLR 21/M07 A3003 RMK AO2
KAQO 172255Z AUTO 12006G12KT 10SM CLR 20/M07 A3002 RMK AO2
KAQO 172355Z AUTO 12007KT 10SM CLR 16/M05 A3001 RMK AO2
KAQO 180055Z AUTO 12006KT 10SM CLR 13/M04 A3002 RMK AO2
KAQO 180155Z AUTO 17005KT 10SM FEW039 SCT048 11/M06 A3003 RMK AO2
KAQO 180255Z AUTO 16004KT 10SM FEW031 SCT037 SCT046 11/M07 A3003 RMK AO2
KAQO 180355Z AUTO 00000KT 10SM FEW024 FEW029 04/M04 A3003 RMK AO2